sensor_id;sensor_type;location;lat;lon;timestamp;P1;durP1;ratioP1;P2;durP2;ratioP2
4460;SDS011;2243;48.812;9.232;2023-09-19T00:00:25;1.00;;;1.00;;
4460;SDS011;2243;48.812;9.232;2023-09-19T00:02:58;1.40;;;1.30;;
4460;SDS011;2243;48.812;9.232;2023-09-19T00:05:35;1.33;;;1.20;;
4460;SDS011;2243;48.812;9.232;2023-09-19T00:08:15;1.40;;;1.20;;
4460;SDS011;2243;48.812;9.232;2023-09-19T00:10:46;1.10;;;0.90;;
4460;SDS011;2243;48.812;9.232;2023-09-19T00:13:19;0.97;;;0.97;;
4460;SDS011;2243;48.812;9.232;2023-09-19T00:15:50;0.90;;;0.90;;
4460;SDS011;2243;48.812;9.232;2023-09-19T00:18:21;1.10;;;1.00;;
4460;SDS011;2243;48.812;9.232;2023-09-19T00:20:56;4.40;;;1.10;;
4460;SDS011;2243;48.812;9.232;2023-09-19T00:23:28;1.13;;;1.00;;
4460;SDS011;2243;48.812;9.232;2023-09-19T00:26:00;1.47;;;1.07;;
4460;SDS011;2243;48.812;9.232;2023-09-19T00:28:31;1.10;;;1.10;;
4460;SDS011;2243;48.812;9.232;2023-09-19T00:31:02;2.07;;;1.23;;
4460;SDS011;2243;48.812;9.232;2023-09-19T00:33:35;1.03;;;1.03;;
4460;SDS011;2243;48.812;9.232;2023-09-19T00:36:06;0.90;;;0.90;;
4460;SDS011;2243;48.812;9.232;2023-09-19T00:38:37;2.77;;;2.10;;
4460;SDS011;2243;48.812;9.232;2023-09-19T00:41:08;2.10;;;1.00;;
4460;SDS011;2243;48.812;9.232;2023-09-19T00:43:39;1.07;;;0.87;;
4460;SDS011;2243;48.812;9.232;2023-09-19T00:46:11;1.63;;;1.00;;
4460;SDS011;2243;48.812;9.232;2023-09-19T00:48:42;2.30;;;1.30;;
4460;SDS011;2243;48.812;9.232;2023-09-19T00:51:14;2.20;;;1.30;;
4460;SDS011;2243;48.812;9.232;2023-09-19T00:53:49;1.10;;;1.00;;
4460;SDS011;2243;48.812;9.232;2023-09-19T00:56:20;3.43;;;1.00;;
4460;SDS011;2243;48.812;9.232;2023-09-19T00:58:51;1.07;;;1.00;;
4460;SDS011;2243;48.812;9.232;2023-09-19T01:01:22;1.83;;;1.10;;
4460;SDS011;2243;48.812;9.232;2023-09-19T01:03:54;1.47;;;0.70;;
4460;SDS011;2243;48.812;9.232;2023-09-19T01:06:25;1.00;;;0.90;;
4460;SDS011;2243;48.812;9.232;2023-09-19T01:08:56;1.87;;;0.90;;
4460;SDS011;2243;48.812;9.232;2023-09-19T01:11:33;1.10;;;1.10;;
4460;SDS011;2243;48.812;9.232;2023-09-19T01:14:14;1.17;;;0.60;;
4460;SDS011;2243;48.812;9.232;2023-09-19T01:17:14;1.23;;;0.90;;
4460;SDS011;2243;48.812;9.232;2023-09-19T01:20:03;1.73;;;1.13;;
4460;SDS011;2243;48.812;9.232;2023-09-19T01:28:32;1.40;;;1.30;;
4460;SDS011;2243;48.812;9.232;2023-09-19T01:31:11;0.93;;;0.93;;
4460;SDS011;2243;48.812;9.232;2023-09-19T01:33:55;0.90;;;0.90;;
4460;SDS011;2243;48.812;9.232;2023-09-19T01:36:31;1.53;;;1.10;;
4460;SDS011;2243;48.812;9.232;2023-09-19T01:39:10;1.73;;;0.80;;
4460;SDS011;2243;48.812;9.232;2023-09-19T01:47:23;1.00;;;1.00;;
4460;SDS011;2243;48.812;9.232;2023-09-19T01:50:20;1.47;;;1.00;;
4460;SDS011;2243;48.812;9.232;2023-09-19T01:53:24;1.00;;;1.00;;
4460;SDS011;2243;48.812;9.232;2023-09-19T01:56:37;1.13;;;1.03;;
4460;SDS011;2243;48.812;9.232;2023-09-19T01:59:50;2.67;;;0.80;;
4460;SDS011;2243;48.812;9.232;2023-09-19T02:02:44;1.63;;;1.00;;
4460;SDS011;2243;48.812;9.232;2023-09-19T02:05:23;1.03;;;0.93;;
4460;SDS011;2243;48.812;9.232;2023-09-19T02:07:55;1.30;;;1.30;;
4460;SDS011;2243;48.812;9.232;2023-09-19T02:10:27;0.80;;;0.80;;
4460;SDS011;2243;48.812;9.232;2023-09-19T02:12:58;0.70;;;0.70;;
4460;SDS011;2243;48.812;9.232;2023-09-19T02:15:29;1.03;;;0.70;;
4460;SDS011;2243;48.812;9.232;2023-09-19T02:18:02;0.83;;;0.83;;
4460;SDS011;2243;48.812;9.232;2023-09-19T02:20:34;1.10;;;1.00;;
4460;SDS011;2243;48.812;9.232;2023-09-19T02:23:05;1.30;;;1.00;;
4460;SDS011;2243;48.812;9.232;2023-09-19T02:25:38;0.90;;;0.70;;
4460;SDS011;2243;48.812;9.232;2023-09-19T02:28:10;0.93;;;0.93;;
4460;SDS011;2243;48.812;9.232;2023-09-19T02:30:42;1.83;;;0.97;;
4460;SDS011;2243;48.812;9.232;2023-09-19T02:33:13;1.00;;;1.00;;
4460;SDS011;2243;48.812;9.232;2023-09-19T02:35:44;1.13;;;1.03;;
4460;SDS011;2243;48.812;9.232;2023-09-19T02:38:15;0.90;;;0.90;;
4460;SDS011;2243;48.812;9.232;2023-09-19T02:40:51;1.00;;;1.00;;
4460;SDS011;2243;48.812;9.232;2023-09-19T02:43:23;0.83;;;0.83;;
4460;SDS011;2243;48.812;9.232;2023-09-19T02:45:54;0.93;;;0.93;;
4460;SDS011;2243;48.812;9.232;2023-09-19T02:48:27;0.70;;;0.70;;
4460;SDS011;2243;48.812;9.232;2023-09-19T02:50:59;1.20;;;1.00;;
4460;SDS011;2243;48.812;9.232;2023-09-19T02:53:30;1.30;;;1.20;;
4460;SDS011;2243;48.812;9.232;2023-09-19T02:56:02;1.97;;;0.80;;
4460;SDS011;2243;48.812;9.232;2023-09-19T02:58:34;0.90;;;0.90;;
4460;SDS011;2243;48.812;9.232;2023-09-19T03:01:12;1.00;;;0.90;;
4460;SDS011;2243;48.812;9.232;2023-09-19T03:03:43;1.03;;;1.00;;
4460;SDS011;2243;48.812;9.232;2023-09-19T03:06:15;2.30;;;0.90;;
4460;SDS011;2243;48.812;9.232;2023-09-19T03:08:50;1.30;;;1.10;;
4460;SDS011;2243;48.812;9.232;2023-09-19T03:11:22;1.00;;;1.00;;
4460;SDS011;2243;48.812;9.232;2023-09-19T03:13:53;0.93;;;0.93;;
4460;SDS011;2243;48.812;9.232;2023-09-19T03:16:25;0.70;;;0.70;;
4460;SDS011;2243;48.812;9.232;2023-09-19T03:18:56;1.10;;;1.10;;
4460;SDS011;2243;48.812;9.232;2023-09-19T03:21:28;2.23;;;1.10;;
4460;SDS011;2243;48.812;9.232;2023-09-19T03:24:00;1.00;;;0.90;;
4460;SDS011;2243;48.812;9.232;2023-09-19T03:26:31;1.13;;;0.90;;
4460;SDS011;2243;48.812;9.232;2023-09-19T03:29:03;1.03;;;0.90;;
4460;SDS011;2243;48.812;9.232;2023-09-19T03:31:37;0.90;;;0.90;;
4460;SDS011;2243;48.812;9.232;2023-09-19T03:34:08;1.30;;;1.00;;
4460;SDS011;2243;48.812;9.232;2023-09-19T03:36:39;2.60;;;0.93;;
4460;SDS011;2243;48.812;9.232;2023-09-19T03:39:11;1.10;;;1.00;;
4460;SDS011;2243;48.812;9.232;2023-09-19T03:41:42;1.50;;;1.40;;
4460;SDS011;2243;48.812;9.232;2023-09-19T03:44:13;2.30;;;1.03;;
4460;SDS011;2243;48.812;9.232;2023-09-19T03:46:45;4.30;;;1.30;;
4460;SDS011;2243;48.812;9.232;2023-09-19T03:49:17;1.40;;;1.30;;
4460;SDS011;2243;48.812;9.232;2023-09-19T03:51:48;1.10;;;1.10;;
4460;SDS011;2243;48.812;9.232;2023-09-19T03:54:19;1.10;;;1.00;;
4460;SDS011;2243;48.812;9.232;2023-09-19T03:56:50;1.10;;;0.93;;
4460;SDS011;2243;48.812;9.232;2023-09-19T03:59:21;1.57;;;1.47;;
4460;SDS011;2243;48.812;9.232;2023-09-19T04:01:52;1.53;;;1.23;;
4460;SDS011;2243;48.812;9.232;2023-09-19T04:04:26;1.20;;;1.10;;
4460;SDS011;2243;48.812;9.232;2023-09-19T04:06:59;1.40;;;1.30;;
4460;SDS011;2243;48.812;9.232;2023-09-19T04:09:30;1.27;;;1.17;;
4460;SDS011;2243;48.812;9.232;2023-09-19T04:12:01;1.10;;;1.03;;
4460;SDS011;2243;48.812;9.232;2023-09-19T04:14:33;3.70;;;1.23;;
4460;SDS011;2243;48.812;9.232;2023-09-19T04:17:04;1.10;;;1.10;;
4460;SDS011;2243;48.812;9.232;2023-09-19T04:19:38;2.23;;;0.90;;
4460;SDS011;2243;48.812;9.232;2023-09-19T04:22:11;2.70;;;1.23;;
4460;SDS011;2243;48.812;9.232;2023-09-19T04:24:43;1.17;;;1.07;;
4460;SDS011;2243;48.812;9.232;2023-09-19T04:27:14;1.40;;;1.30;;
4460;SDS011;2243;48.812;9.232;2023-09-19T04:29:45;2.03;;;1.10;;
4460;SDS011;2243;48.812;9.232;2023-09-19T04:32:16;1.17;;;1.07;;
4460;SDS011;2243;48.812;9.232;2023-09-19T04:34:47;1.63;;;1.53;;
4460;SDS011;2243;48.812;9.232;2023-09-19T04:37:20;2.43;;;1.07;;
4460;SDS011;2243;48.812;9.232;2023-09-19T04:39:52;1.50;;;1.10;;
4460;SDS011;2243;48.812;9.232;2023-09-19T04:42:23;10.60;;;3.40;;
4460;SDS011;2243;48.812;9.232;2023-09-19T04:44:55;12.50;;;3.60;;
4460;SDS011;2243;48.812;9.232;2023-09-19T04:47:26;4.10;;;2.50;;
4460;SDS011;2243;48.812;9.232;2023-09-19T04:49:57;5.50;;;2.00;;
4460;SDS011;2243;48.812;9.232;2023-09-19T04:52:30;6.50;;;1.80;;
4460;SDS011;2243;48.812;9.232;2023-09-19T04:55:01;1.23;;;1.20;;
4460;SDS011;2243;48.812;9.232;2023-09-19T04:57:32;2.37;;;1.60;;
4460;SDS011;2243;48.812;9.232;2023-09-19T05:00:04;1.43;;;1.30;;
4460;SDS011;2243;48.812;9.232;2023-09-19T05:02:42;1.37;;;1.27;;
4460;SDS011;2243;48.812;9.232;2023-09-19T05:05:14;3.07;;;1.57;;
4460;SDS011;2243;48.812;9.232;2023-09-19T05:07:47;1.83;;;1.40;;
4460;SDS011;2243;48.812;9.232;2023-09-19T05:10:18;3.90;;;1.50;;
4460;SDS011;2243;48.812;9.232;2023-09-19T05:12:52;2.10;;;1.40;;
4460;SDS011;2243;48.812;9.232;2023-09-19T05:15:24;4.27;;;1.90;;
4460;SDS011;2243;48.812;9.232;2023-09-19T05:17:55;1.50;;;1.40;;
4460;SDS011;2243;48.812;9.232;2023-09-19T05:20:27;3.70;;;1.43;;
4460;SDS011;2243;48.812;9.232;2023-09-19T05:23:04;1.50;;;1.40;;
4460;SDS011;2243;48.812;9.232;2023-09-19T05:25:39;1.77;;;1.50;;
4460;SDS011;2243;48.812;9.232;2023-09-19T05:28:11;2.70;;;1.70;;
4460;SDS011;2243;48.812;9.232;2023-09-19T05:30:45;2.00;;;1.70;;
4460;SDS011;2243;48.812;9.232;2023-09-19T05:33:21;4.20;;;1.87;;
4460;SDS011;2243;48.812;9.232;2023-09-19T05:35:52;2.07;;;1.93;;
4460;SDS011;2243;48.812;9.232;2023-09-19T05:38:24;2.23;;;1.67;;
4460;SDS011;2243;48.812;9.232;2023-09-19T05:40:58;1.80;;;1.70;;
4460;SDS011;2243;48.812;9.232;2023-09-19T05:43:29;1.80;;;1.70;;
4460;SDS011;2243;48.812;9.232;2023-09-19T05:46:00;2.73;;;1.80;;
4460;SDS011;2243;48.812;9.232;2023-09-19T05:48:31;2.40;;;1.83;;
4460;SDS011;2243;48.812;9.232;2023-09-19T05:51:03;3.30;;;2.27;;
4460;SDS011;2243;48.812;9.232;2023-09-19T05:53:34;3.00;;;1.83;;
4460;SDS011;2243;48.812;9.232;2023-09-19T05:56:05;1.90;;;1.80;;
4460;SDS011;2243;48.812;9.232;2023-09-19T05:58:36;3.93;;;1.83;;
4460;SDS011;2243;48.812;9.232;2023-09-19T06:01:07;4.80;;;2.43;;
4460;SDS011;2243;48.812;9.232;2023-09-19T06:03:39;1.77;;;1.67;;
4460;SDS011;2243;48.812;9.232;2023-09-19T06:06:11;1.97;;;1.87;;
4460;SDS011;2243;48.812;9.232;2023-09-19T06:08:42;2.73;;;2.37;;
4460;SDS011;2243;48.812;9.232;2023-09-19T06:11:15;2.17;;;2.03;;
4460;SDS011;2243;48.812;9.232;2023-09-19T06:13:46;2.53;;;2.00;;
4460;SDS011;2243;48.812;9.232;2023-09-19T06:16:17;4.20;;;2.17;;
4460;SDS011;2243;48.812;9.232;2023-09-19T06:18:50;2.60;;;2.40;;
4460;SDS011;2243;48.812;9.232;2023-09-19T06:21:21;2.97;;;2.23;;
4460;SDS011;2243;48.812;9.232;2023-09-19T06:23:53;5.43;;;2.40;;
4460;SDS011;2243;48.812;9.232;2023-09-19T06:26:25;2.57;;;2.37;;
4460;SDS011;2243;48.812;9.232;2023-09-19T06:28:57;3.13;;;2.93;;
4460;SDS011;2243;48.812;9.232;2023-09-19T06:31:30;4.33;;;3.13;;
4460;SDS011;2243;48.812;9.232;2023-09-19T06:34:01;4.07;;;2.70;;
4460;SDS011;2243;48.812;9.232;2023-09-19T06:36:33;3.03;;;2.63;;
4460;SDS011;2243;48.812;9.232;2023-09-19T06:39:04;3.47;;;2.93;;
4460;SDS011;2243;48.812;9.232;2023-09-19T06:41:37;3.20;;;3.10;;
4460;SDS011;2243;48.812;9.232;2023-09-19T06:44:10;5.13;;;3.00;;
4460;SDS011;2243;48.812;9.232;2023-09-19T06:46:41;3.40;;;2.87;;
4460;SDS011;2243;48.812;9.232;2023-09-19T06:49:14;3.70;;;3.47;;
4460;SDS011;2243;48.812;9.232;2023-09-19T06:51:45;4.80;;;3.30;;
4460;SDS011;2243;48.812;9.232;2023-09-19T06:54:20;3.40;;;3.10;;
4460;SDS011;2243;48.812;9.232;2023-09-19T06:56:55;3.60;;;3.30;;
4460;SDS011;2243;48.812;9.232;2023-09-19T06:59:26;3.87;;;3.23;;
4460;SDS011;2243;48.812;9.232;2023-09-19T07:01:57;5.30;;;3.17;;
4460;SDS011;2243;48.812;9.232;2023-09-19T07:04:29;3.27;;;2.97;;
4460;SDS011;2243;48.812;9.232;2023-09-19T07:07:01;6.50;;;3.17;;
4460;SDS011;2243;48.812;9.232;2023-09-19T07:09:33;4.80;;;3.70;;
4460;SDS011;2243;48.812;9.232;2023-09-19T07:12:04;3.57;;;3.37;;
4460;SDS011;2243;48.812;9.232;2023-09-19T07:14:36;4.30;;;3.43;;
4460;SDS011;2243;48.812;9.232;2023-09-19T07:17:08;6.40;;;3.70;;
4460;SDS011;2243;48.812;9.232;2023-09-19T07:19:40;3.37;;;3.13;;
4460;SDS011;2243;48.812;9.232;2023-09-19T07:22:11;3.57;;;2.90;;
4460;SDS011;2243;48.812;9.232;2023-09-19T07:24:43;4.07;;;3.70;;
4460;SDS011;2243;48.812;9.232;2023-09-19T07:27:15;8.90;;;3.43;;
4460;SDS011;2243;48.812;9.232;2023-09-19T07:29:47;4.00;;;3.53;;
4460;SDS011;2243;48.812;9.232;2023-09-19T07:32:22;3.50;;;2.80;;
4460;SDS011;2243;48.812;9.232;2023-09-19T07:34:54;3.80;;;2.90;;
4460;SDS011;2243;48.812;9.232;2023-09-19T07:37:26;3.70;;;3.40;;
4460;SDS011;2243;48.812;9.232;2023-09-19T07:39:57;3.00;;;2.80;;
4460;SDS011;2243;48.812;9.232;2023-09-19T07:42:29;3.13;;;2.80;;
4460;SDS011;2243;48.812;9.232;2023-09-19T07:45:01;3.33;;;3.13;;
4460;SDS011;2243;48.812;9.232;2023-09-19T07:47:33;4.07;;;3.50;;
4460;SDS011;2243;48.812;9.232;2023-09-19T07:50:07;3.80;;;3.50;;
4460;SDS011;2243;48.812;9.232;2023-09-19T07:52:38;6.00;;;2.53;;
4460;SDS011;2243;48.812;9.232;2023-09-19T07:55:10;3.23;;;3.03;;
4460;SDS011;2243;48.812;9.232;2023-09-19T07:57:46;4.07;;;2.30;;
4460;SDS011;2243;48.812;9.232;2023-09-19T08:00:18;5.73;;;2.70;;
4460;SDS011;2243;48.812;9.232;2023-09-19T08:02:50;2.97;;;2.63;;
4460;SDS011;2243;48.812;9.232;2023-09-19T08:05:30;2.70;;;2.50;;
4460;SDS011;2243;48.812;9.232;2023-09-19T08:08:04;2.50;;;2.40;;
4460;SDS011;2243;48.812;9.232;2023-09-19T08:10:37;8.63;;;2.80;;
4460;SDS011;2243;48.812;9.232;2023-09-19T08:13:10;2.70;;;2.50;;
4460;SDS011;2243;48.812;9.232;2023-09-19T08:15:45;2.00;;;1.90;;
4460;SDS011;2243;48.812;9.232;2023-09-19T08:18:17;3.93;;;2.30;;
4460;SDS011;2243;48.812;9.232;2023-09-19T08:20:50;4.03;;;2.17;;
4460;SDS011;2243;48.812;9.232;2023-09-19T08:23:22;2.27;;;2.07;;
4460;SDS011;2243;48.812;9.232;2023-09-19T08:25:56;3.77;;;3.10;;
4460;SDS011;2243;48.812;9.232;2023-09-19T08:28:28;2.40;;;2.20;;
4460;SDS011;2243;48.812;9.232;2023-09-19T08:31:03;2.90;;;2.57;;
4460;SDS011;2243;48.812;9.232;2023-09-19T08:33:36;2.80;;;2.03;;
4460;SDS011;2243;48.812;9.232;2023-09-19T08:36:08;3.50;;;2.03;;
4460;SDS011;2243;48.812;9.232;2023-09-19T08:38:39;1.90;;;1.80;;
4460;SDS011;2243;48.812;9.232;2023-09-19T08:41:10;2.27;;;2.17;;
4460;SDS011;2243;48.812;9.232;2023-09-19T08:43:42;2.77;;;2.27;;
4460;SDS011;2243;48.812;9.232;2023-09-19T08:46:15;2.03;;;1.70;;
4460;SDS011;2243;48.812;9.232;2023-09-19T08:49:04;1.80;;;1.70;;
4460;SDS011;2243;48.812;9.232;2023-09-19T08:52:07;1.60;;;1.50;;
4460;SDS011;2243;48.812;9.232;2023-09-19T08:54:51;3.37;;;1.67;;
4460;SDS011;2243;48.812;9.232;2023-09-19T08:57:35;1.60;;;1.50;;
4460;SDS011;2243;48.812;9.232;2023-09-19T09:00:12;1.60;;;1.50;;
4460;SDS011;2243;48.812;9.232;2023-09-19T09:02:45;1.60;;;1.50;;
4460;SDS011;2243;48.812;9.232;2023-09-19T09:05:17;1.60;;;1.50;;
4460;SDS011;2243;48.812;9.232;2023-09-19T09:07:53;1.60;;;1.50;;
4460;SDS011;2243;48.812;9.232;2023-09-19T09:10:26;1.70;;;1.60;;
4460;SDS011;2243;48.812;9.232;2023-09-19T09:12:57;1.20;;;1.20;;
4460;SDS011;2243;48.812;9.232;2023-09-19T09:15:29;1.50;;;1.40;;
4460;SDS011;2243;48.812;9.232;2023-09-19T09:18:02;1.60;;;1.50;;
4460;SDS011;2243;48.812;9.232;2023-09-19T09:20:35;2.53;;;1.60;;
4460;SDS011;2243;48.812;9.232;2023-09-19T09:23:06;1.37;;;1.30;;
4460;SDS011;2243;48.812;9.232;2023-09-19T09:25:47;1.10;;;1.10;;
4460;SDS011;2243;48.812;9.232;2023-09-19T09:28:26;2.60;;;1.70;;
4460;SDS011;2243;48.812;9.232;2023-09-19T09:30:59;1.20;;;1.10;;
4460;SDS011;2243;48.812;9.232;2023-09-19T09:33:38;1.40;;;1.30;;
4460;SDS011;2243;48.812;9.232;2023-09-19T09:36:12;5.33;;;1.87;;
4460;SDS011;2243;48.812;9.232;2023-09-19T09:38:46;1.50;;;1.40;;
4460;SDS011;2243;48.812;9.232;2023-09-19T09:41:18;1.57;;;1.30;;
4460;SDS011;2243;48.812;9.232;2023-09-19T09:43:59;6.73;;;1.50;;
4460;SDS011;2243;48.812;9.232;2023-09-19T09:46:50;2.70;;;1.70;;
4460;SDS011;2243;48.812;9.232;2023-09-19T09:49:24;1.40;;;1.23;;
4460;SDS011;2243;48.812;9.232;2023-09-19T09:52:07;2.10;;;1.40;;
4460;SDS011;2243;48.812;9.232;2023-09-19T09:54:59;1.50;;;1.40;;
4460;SDS011;2243;48.812;9.232;2023-09-19T09:57:39;2.50;;;1.17;;
4460;SDS011;2243;48.812;9.232;2023-09-19T10:00:11;3.13;;;1.60;;
4460;SDS011;2243;48.812;9.232;2023-09-19T10:02:43;1.70;;;1.60;;
4460;SDS011;2243;48.812;9.232;2023-09-19T10:05:18;2.63;;;1.30;;
4460;SDS011;2243;48.812;9.232;2023-09-19T10:07:51;1.47;;;1.37;;
4460;SDS011;2243;48.812;9.232;2023-09-19T10:10:31;1.50;;;1.40;;
4460;SDS011;2243;48.812;9.232;2023-09-19T10:13:14;2.20;;;1.40;;
4460;SDS011;2243;48.812;9.232;2023-09-19T10:15:49;3.10;;;1.70;;
4460;SDS011;2243;48.812;9.232;2023-09-19T10:18:23;1.77;;;1.10;;
4460;SDS011;2243;48.812;9.232;2023-09-19T10:20:57;1.63;;;1.53;;
4460;SDS011;2243;48.812;9.232;2023-09-19T10:23:29;1.83;;;1.40;;
4460;SDS011;2243;48.812;9.232;2023-09-19T10:26:04;1.30;;;1.20;;
4460;SDS011;2243;48.812;9.232;2023-09-19T10:28:36;1.60;;;1.50;;
4460;SDS011;2243;48.812;9.232;2023-09-19T10:31:09;1.50;;;1.40;;
4460;SDS011;2243;48.812;9.232;2023-09-19T10:33:44;4.30;;;1.50;;
4460;SDS011;2243;48.812;9.232;2023-09-19T10:36:19;2.83;;;1.50;;
4460;SDS011;2243;48.812;9.232;2023-09-19T10:38:51;1.60;;;1.50;;
4460;SDS011;2243;48.812;9.232;2023-09-19T10:41:25;2.60;;;1.60;;
4460;SDS011;2243;48.812;9.232;2023-09-19T10:44:00;4.03;;;1.63;;
4460;SDS011;2243;48.812;9.232;2023-09-19T10:46:36;1.50;;;1.27;;
4460;SDS011;2243;48.812;9.232;2023-09-19T10:49:08;1.20;;;1.10;;
4460;SDS011;2243;48.812;9.232;2023-09-19T10:51:42;1.20;;;1.20;;
4460;SDS011;2243;48.812;9.232;2023-09-19T10:54:17;1.70;;;1.60;;
4460;SDS011;2243;48.812;9.232;2023-09-19T10:56:56;1.47;;;1.30;;
4460;SDS011;2243;48.812;9.232;2023-09-19T10:59:29;2.70;;;1.27;;
4460;SDS011;2243;48.812;9.232;2023-09-19T11:02:17;1.20;;;1.10;;
4460;SDS011;2243;48.812;9.232;2023-09-19T11:04:49;1.20;;;1.10;;
4460;SDS011;2243;48.812;9.232;2023-09-19T11:07:20;1.50;;;1.40;;
4460;SDS011;2243;48.812;9.232;2023-09-19T11:09:52;3.10;;;1.00;;
4460;SDS011;2243;48.812;9.232;2023-09-19T11:15:02;2.10;;;1.20;;
4460;SDS011;2243;48.812;9.232;2023-09-19T11:17:43;1.80;;;1.00;;
4460;SDS011;2243;48.812;9.232;2023-09-19T11:20:21;1.03;;;0.90;;
4460;SDS011;2243;48.812;9.232;2023-09-19T11:25:48;1.83;;;1.10;;
4460;SDS011;2243;48.812;9.232;2023-09-19T11:30:55;2.17;;;1.50;;
4460;SDS011;2243;48.812;9.232;2023-09-19T11:33:29;3.90;;;1.13;;
4460;SDS011;2243;48.812;9.232;2023-09-19T11:36:04;1.90;;;1.17;;
4460;SDS011;2243;48.812;9.232;2023-09-19T11:41:36;1.10;;;1.07;;
4460;SDS011;2243;48.812;9.232;2023-09-19T11:46:53;2.20;;;1.10;;
4460;SDS011;2243;48.812;9.232;2023-09-19T11:49:31;1.20;;;1.10;;
4460;SDS011;2243;48.812;9.232;2023-09-19T11:52:04;0.87;;;0.87;;
4460;SDS011;2243;48.812;9.232;2023-09-19T11:54:35;0.80;;;0.70;;
4460;SDS011;2243;48.812;9.232;2023-09-19T11:57:10;1.90;;;1.00;;
4460;SDS011;2243;48.812;9.232;2023-09-19T11:59:42;0.90;;;0.90;;
4460;SDS011;2243;48.812;9.232;2023-09-19T12:02:17;1.30;;;1.03;;
4460;SDS011;2243;48.812;9.232;2023-09-19T12:05:10;1.13;;;0.90;;
4460;SDS011;2243;48.812;9.232;2023-09-19T12:07:43;1.20;;;1.10;;
4460;SDS011;2243;48.812;9.232;2023-09-19T12:10:16;1.20;;;1.10;;
4460;SDS011;2243;48.812;9.232;2023-09-19T12:12:48;1.10;;;1.10;;
4460;SDS011;2243;48.812;9.232;2023-09-19T12:15:23;1.10;;;1.00;;
4460;SDS011;2243;48.812;9.232;2023-09-19T12:17:58;2.60;;;1.00;;
4460;SDS011;2243;48.812;9.232;2023-09-19T12:20:43;1.00;;;1.00;;
4460;SDS011;2243;48.812;9.232;2023-09-19T12:23:20;1.20;;;1.10;;
4460;SDS011;2243;48.812;9.232;2023-09-19T12:25:51;0.93;;;0.80;;
4460;SDS011;2243;48.812;9.232;2023-09-19T12:28:26;1.00;;;1.00;;
4460;SDS011;2243;48.812;9.232;2023-09-19T12:31:07;1.30;;;1.20;;
4460;SDS011;2243;48.812;9.232;2023-09-19T12:33:39;1.50;;;1.40;;
4460;SDS011;2243;48.812;9.232;2023-09-19T12:36:21;1.30;;;1.17;;
4460;SDS011;2243;48.812;9.232;2023-09-19T12:38:59;2.17;;;0.80;;
4460;SDS011;2243;48.812;9.232;2023-09-19T12:41:30;1.10;;;1.10;;
4460;SDS011;2243;48.812;9.232;2023-09-19T12:44:02;1.53;;;1.10;;
4460;SDS011;2243;48.812;9.232;2023-09-19T12:46:39;1.50;;;1.40;;
4460;SDS011;2243;48.812;9.232;2023-09-19T12:49:17;1.20;;;1.03;;
4460;SDS011;2243;48.812;9.232;2023-09-19T12:51:49;1.47;;;1.10;;
4460;SDS011;2243;48.812;9.232;2023-09-19T12:54:25;1.30;;;1.20;;
4460;SDS011;2243;48.812;9.232;2023-09-19T12:57:09;1.13;;;0.87;;
4460;SDS011;2243;48.812;9.232;2023-09-19T12:59:56;1.43;;;1.07;;
4460;SDS011;2243;48.812;9.232;2023-09-19T13:02:28;1.60;;;1.50;;
4460;SDS011;2243;48.812;9.232;2023-09-19T13:04:59;1.30;;;1.20;;
4460;SDS011;2243;48.812;9.232;2023-09-19T13:07:44;2.27;;;1.40;;
4460;SDS011;2243;48.812;9.232;2023-09-19T13:10:17;1.90;;;1.30;;
4460;SDS011;2243;48.812;9.232;2023-09-19T13:12:53;1.70;;;1.60;;
4460;SDS011;2243;48.812;9.232;2023-09-19T13:15:24;2.20;;;1.03;;
4460;SDS011;2243;48.812;9.232;2023-09-19T13:18:00;0.97;;;0.97;;
4460;SDS011;2243;48.812;9.232;2023-09-19T13:20:44;1.67;;;1.57;;
4460;SDS011;2243;48.812;9.232;2023-09-19T13:23:45;1.53;;;1.43;;
4460;SDS011;2243;48.812;9.232;2023-09-19T13:26:17;2.50;;;1.10;;
4460;SDS011;2243;48.812;9.232;2023-09-19T13:28:49;2.13;;;1.30;;
4460;SDS011;2243;48.812;9.232;2023-09-19T13:31:20;1.50;;;1.40;;
4460;SDS011;2243;48.812;9.232;2023-09-19T13:33:51;1.13;;;1.13;;
4460;SDS011;2243;48.812;9.232;2023-09-19T13:36:22;1.73;;;1.50;;
4460;SDS011;2243;48.812;9.232;2023-09-19T13:38:53;1.20;;;1.00;;
4460;SDS011;2243;48.812;9.232;2023-09-19T13:41:25;9.53;;;1.60;;
4460;SDS011;2243;48.812;9.232;2023-09-19T13:43:56;1.37;;;1.30;;
4460;SDS011;2243;48.812;9.232;2023-09-19T13:46:28;1.77;;;1.23;;
4460;SDS011;2243;48.812;9.232;2023-09-19T13:49:01;1.10;;;1.10;;
4460;SDS011;2243;48.812;9.232;2023-09-19T13:51:33;1.70;;;1.60;;
4460;SDS011;2243;48.812;9.232;2023-09-19T13:54:05;1.40;;;1.30;;
4460;SDS011;2243;48.812;9.232;2023-09-19T13:56:37;1.63;;;1.53;;
4460;SDS011;2243;48.812;9.232;2023-09-19T13:59:09;1.10;;;1.10;;
4460;SDS011;2243;48.812;9.232;2023-09-19T14:01:40;2.70;;;1.83;;
4460;SDS011;2243;48.812;9.232;2023-09-19T14:04:12;1.20;;;1.10;;
4460;SDS011;2243;48.812;9.232;2023-09-19T14:06:45;1.50;;;1.40;;
4460;SDS011;2243;48.812;9.232;2023-09-19T14:09:16;1.73;;;1.30;;
4460;SDS011;2243;48.812;9.232;2023-09-19T14:11:49;1.57;;;1.47;;
4460;SDS011;2243;48.812;9.232;2023-09-19T14:14:22;2.30;;;1.17;;
4460;SDS011;2243;48.812;9.232;2023-09-19T14:16:54;1.43;;;1.33;;
4460;SDS011;2243;48.812;9.232;2023-09-19T14:19:25;1.90;;;1.23;;
4460;SDS011;2243;48.812;9.232;2023-09-19T14:21:57;1.43;;;1.33;;
4460;SDS011;2243;48.812;9.232;2023-09-19T14:24:29;1.30;;;1.20;;
4460;SDS011;2243;48.812;9.232;2023-09-19T14:27:00;1.57;;;1.10;;
4460;SDS011;2243;48.812;9.232;2023-09-19T14:29:33;1.50;;;1.40;;
4460;SDS011;2243;48.812;9.232;2023-09-19T14:32:04;2.67;;;1.30;;
4460;SDS011;2243;48.812;9.232;2023-09-19T14:34:35;1.20;;;1.10;;
4460;SDS011;2243;48.812;9.232;2023-09-19T14:37:12;1.80;;;1.27;;
4460;SDS011;2243;48.812;9.232;2023-09-19T14:39:43;1.77;;;1.67;;
4460;SDS011;2243;48.812;9.232;2023-09-19T14:42:15;1.20;;;1.10;;
4460;SDS011;2243;48.812;9.232;2023-09-19T14:44:48;1.50;;;1.40;;
4460;SDS011;2243;48.812;9.232;2023-09-19T14:47:20;0.97;;;0.97;;
4460;SDS011;2243;48.812;9.232;2023-09-19T14:49:51;1.13;;;1.13;;
4460;SDS011;2243;48.812;9.232;2023-09-19T14:52:22;1.40;;;1.30;;
4460;SDS011;2243;48.812;9.232;2023-09-19T14:54:54;1.77;;;1.13;;
4460;SDS011;2243;48.812;9.232;2023-09-19T14:57:25;4.20;;;1.30;;
4460;SDS011;2243;48.812;9.232;2023-09-19T14:59:56;1.33;;;1.23;;
4460;SDS011;2243;48.812;9.232;2023-09-19T15:02:28;1.40;;;1.23;;
4460;SDS011;2243;48.812;9.232;2023-09-19T15:05:00;1.70;;;1.60;;
4460;SDS011;2243;48.812;9.232;2023-09-19T15:07:31;1.37;;;1.27;;
4460;SDS011;2243;48.812;9.232;2023-09-19T15:10:05;1.13;;;1.03;;
4460;SDS011;2243;48.812;9.232;2023-09-19T15:12:40;1.20;;;1.20;;
4460;SDS011;2243;48.812;9.232;2023-09-19T15:15:11;3.77;;;1.17;;
4460;SDS011;2243;48.812;9.232;2023-09-19T15:17:43;2.67;;;2.47;;
4460;SDS011;2243;48.812;9.232;2023-09-19T15:20:14;1.53;;;1.30;;
4460;SDS011;2243;48.812;9.232;2023-09-19T15:22:45;1.33;;;1.20;;
4460;SDS011;2243;48.812;9.232;2023-09-19T15:25:16;1.73;;;1.43;;
4460;SDS011;2243;48.812;9.232;2023-09-19T15:27:47;2.07;;;1.07;;
4460;SDS011;2243;48.812;9.232;2023-09-19T15:30:20;1.60;;;1.40;;
4460;SDS011;2243;48.812;9.232;2023-09-19T15:32:51;2.80;;;1.40;;
4460;SDS011;2243;48.812;9.232;2023-09-19T15:35:22;1.07;;;1.03;;
4460;SDS011;2243;48.812;9.232;2023-09-19T15:37:55;1.20;;;1.10;;
4460;SDS011;2243;48.812;9.232;2023-09-19T15:40:26;2.33;;;2.13;;
4460;SDS011;2243;48.812;9.232;2023-09-19T15:42:58;1.20;;;1.20;;
4460;SDS011;2243;48.812;9.232;2023-09-19T15:45:30;0.90;;;0.90;;
4460;SDS011;2243;48.812;9.232;2023-09-19T15:48:02;1.23;;;1.17;;
4460;SDS011;2243;48.812;9.232;2023-09-19T15:50:35;1.10;;;1.07;;
4460;SDS011;2243;48.812;9.232;2023-09-19T15:53:06;1.27;;;1.17;;
4460;SDS011;2243;48.812;9.232;2023-09-19T15:55:40;1.63;;;1.53;;
4460;SDS011;2243;48.812;9.232;2023-09-19T15:58:11;2.80;;;1.37;;
4460;SDS011;2243;48.812;9.232;2023-09-19T16:00:43;1.13;;;0.93;;
4460;SDS011;2243;48.812;9.232;2023-09-19T16:03:14;1.27;;;1.10;;
4460;SDS011;2243;48.812;9.232;2023-09-19T16:05:45;2.00;;;1.43;;
4460;SDS011;2243;48.812;9.232;2023-09-19T16:08:16;1.40;;;1.30;;
4460;SDS011;2243;48.812;9.232;2023-09-19T16:10:48;1.30;;;1.20;;
4460;SDS011;2243;48.812;9.232;2023-09-19T16:13:19;1.80;;;1.70;;
4460;SDS011;2243;48.812;9.232;2023-09-19T16:15:50;1.63;;;1.50;;
4460;SDS011;2243;48.812;9.232;2023-09-19T16:18:21;1.33;;;1.00;;
4460;SDS011;2243;48.812;9.232;2023-09-19T16:20:52;1.23;;;1.13;;